sensor_id;sensor_type;location;lat;lon;timestamp;P1;P2;P0
46094;PMS5003;31832;50.746;-2.716;2023-09-12T00:01:03;4;4;
46094;PMS5003;31832;50.746;-2.716;2023-09-12T00:03:24;6;6;
46094;PMS5003;31832;50.746;-2.716;2023-09-12T00:05:51;6;5;
46094;PMS5003;31832;50.746;-2.716;2023-09-12T00:08:15;6;5;
46094;PMS5003;31832;50.746;-2.716;2023-09-12T00:10:40;5;5;
46094;PMS5003;31832;50.746;-2.716;2023-09-12T00:13:05;7;7;
46094;PMS5003;31832;50.746;-2.716;2023-09-12T00:15:30;7;7;
46094;PMS5003;31832;50.746;-2.716;2023-09-12T00:17:55;5;5;
46094;PMS5003;31832;50.746;-2.716;2023-09-12T00:20:20;6;6;
46094;PMS5003;31832;50.746;-2.716;2023-09-12T00:22:45;6;6;
46094;PMS5003;31832;50.746;-2.716;2023-09-12T00:25:10;8;7;
46094;PMS5003;31832;50.746;-2.716;2023-09-12T00:27:36;7;4;
46094;PMS5003;31832;50.746;-2.716;2023-09-12T00:30:01;8;7;
46094;PMS5003;31832;50.746;-2.716;2023-09-12T00:32:26;6;4;
46094;PMS5003;31832;50.746;-2.716;2023-09-12T00:34:51;5;5;
46094;PMS5003;31832;50.746;-2.716;2023-09-12T00:37:16;6;6;
46094;PMS5003;31832;50.746;-2.716;2023-09-12T00:39:42;4;4;
46094;PMS5003;31832;50.746;-2.716;2023-09-12T00:42:07;7;5;
46094;PMS5003;31832;50.746;-2.716;2023-09-12T00:44:32;8;6;
46094;PMS5003;31832;50.746;-2.716;2023-09-12T00:46:57;7;6;
46094;PMS5003;31832;50.746;-2.716;2023-09-12T00:49:22;6;6;
46094;PMS5003;31832;50.746;-2.716;2023-09-12T00:51:47;6;4;
46094;PMS5003;31832;50.746;-2.716;2023-09-12T00:54:12;4;4;
46094;PMS5003;31832;50.746;-2.716;2023-09-12T00:56:37;6;6;
46094;PMS5003;31832;50.746;-2.716;2023-09-12T00:59:03;7;6;
46094;PMS5003;31832;50.746;-2.716;2023-09-12T01:01:28;5;5;
46094;PMS5003;31832;50.746;-2.716;2023-09-12T01:03:53;6;5;
46094;PMS5003;31832;50.746;-2.716;2023-09-12T01:06:18;7;5;
46094;PMS5003;31832;50.746;-2.716;2023-09-12T01:08:43;5;5;
46094;PMS5003;31832;50.746;-2.716;2023-09-12T01:11:08;4;4;
46094;PMS5003;31832;50.746;-2.716;2023-09-12T01:13:33;8;7;
46094;PMS5003;31832;50.746;-2.716;2023-09-12T01:15:59;6;5;
46094;PMS5003;31832;50.746;-2.716;2023-09-12T01:18:23;7;6;
46094;PMS5003;31832;50.746;-2.716;2023-09-12T01:20:58;5;4;
46094;PMS5003;31832;50.746;-2.716;2023-09-12T01:23:20;8;5;
46094;PMS5003;31832;50.746;-2.716;2023-09-12T01:25:42;6;6;
46094;PMS5003;31832;50.746;-2.716;2023-09-12T01:28:05;6;5;
46094;PMS5003;31832;50.746;-2.716;2023-09-12T01:30:29;8;7;
46094;PMS5003;31832;50.746;-2.716;2023-09-12T01:32:54;5;5;
46094;PMS5003;31832;50.746;-2.716;2023-09-12T01:35:20;6;6;
46094;PMS5003;31832;50.746;-2.716;2023-09-12T01:37:45;7;7;
46094;PMS5003;31832;50.746;-2.716;2023-09-12T01:40:10;4;4;
46094;PMS5003;31832;50.746;-2.716;2023-09-12T01:42:36;8;8;
46094;PMS5003;31832;50.746;-2.716;2023-09-12T01:45:01;5;5;
46094;PMS5003;31832;50.746;-2.716;2023-09-12T01:47:25;4;4;
46094;PMS5003;31832;50.746;-2.716;2023-09-12T01:49:52;7;6;
46094;PMS5003;31832;50.746;-2.716;2023-09-12T01:52:16;7;7;
46094;PMS5003;31832;50.746;-2.716;2023-09-12T01:54:41;8;7;
46094;PMS5003;31832;50.746;-2.716;2023-09-12T01:57:06;7;7;
46094;PMS5003;31832;50.746;-2.716;2023-09-12T01:59:32;7;7;
46094;PMS5003;31832;50.746;-2.716;2023-09-12T02:01:57;7;7;
46094;PMS5003;31832;50.746;-2.716;2023-09-12T02:04:22;6;6;
46094;PMS5003;31832;50.746;-2.716;2023-09-12T02:06:48;8;7;
46094;PMS5003;31832;50.746;-2.716;2023-09-12T02:09:13;9;9;
46094;PMS5003;31832;50.746;-2.716;2023-09-12T02:11:38;9;7;
46094;PMS5003;31832;50.746;-2.716;2023-09-12T02:14:04;8;8;
46094;PMS5003;31832;50.746;-2.716;2023-09-12T02:16:29;8;7;
46094;PMS5003;31832;50.746;-2.716;2023-09-12T02:18:54;7;7;
46094;PMS5003;31832;50.746;-2.716;2023-09-12T02:21:19;7;6;
46094;PMS5003;31832;50.746;-2.716;2023-09-12T02:23:44;6;6;
46094;PMS5003;31832;50.746;-2.716;2023-09-12T02:26:09;6;6;
46094;PMS5003;31832;50.746;-2.716;2023-09-12T02:28:35;6;5;
46094;PMS5003;31832;50.746;-2.716;2023-09-12T02:31:00;6;6;
46094;PMS5003;31832;50.746;-2.716;2023-09-12T02:33:25;7;6;
46094;PMS5003;31832;50.746;-2.716;2023-09-12T02:35:50;6;6;
46094;PMS5003;31832;50.746;-2.716;2023-09-12T02:38:16;8;8;
46094;PMS5003;31832;50.746;-2.716;2023-09-12T02:40:41;8;8;
46094;PMS5003;31832;50.746;-2.716;2023-09-12T02:43:06;4;4;
46094;PMS5003;31832;50.746;-2.716;2023-09-12T02:45:31;5;5;
46094;PMS5003;31832;50.746;-2.716;2023-09-12T02:47:56;6;6;
46094;PMS5003;31832;50.746;-2.716;2023-09-12T02:50:22;10;6;
46094;PMS5003;31832;50.746;-2.716;2023-09-12T02:52:47;6;6;
46094;PMS5003;31832;50.746;-2.716;2023-09-12T02:55:12;4;4;
46094;PMS5003;31832;50.746;-2.716;2023-09-12T02:57:37;7;5;
46094;PMS5003;31832;50.746;-2.716;2023-09-12T03:00:02;5;5;
46094;PMS5003;31832;50.746;-2.716;2023-09-12T03:02:27;7;6;
46094;PMS5003;31832;50.746;-2.716;2023-09-12T03:04:53;4;4;
46094;PMS5003;31832;50.746;-2.716;2023-09-12T03:07:18;6;5;
46094;PMS5003;31832;50.746;-2.716;2023-09-12T03:09:43;8;6;
46094;PMS5003;31832;50.746;-2.716;2023-09-12T03:12:08;7;7;
46094;PMS5003;31832;50.746;-2.716;2023-09-12T03:14:33;8;7;
46094;PMS5003;31832;50.746;-2.716;2023-09-12T03:16:59;7;6;
46094;PMS5003;31832;50.746;-2.716;2023-09-12T03:19:24;6;6;
46094;PMS5003;31832;50.746;-2.716;2023-09-12T03:21:49;6;6;
46094;PMS5003;31832;50.746;-2.716;2023-09-12T03:24:14;6;6;
46094;PMS5003;31832;50.746;-2.716;2023-09-12T03:26:39;6;6;
46094;PMS5003;31832;50.746;-2.716;2023-09-12T03:29:04;9;7;
46094;PMS5003;31832;50.746;-2.716;2023-09-12T03:31:29;7;7;
46094;PMS5003;31832;50.746;-2.716;2023-09-12T03:33:55;8;7;
46094;PMS5003;31832;50.746;-2.716;2023-09-12T03:36:20;7;7;
46094;PMS5003;31832;50.746;-2.716;2023-09-12T03:38:45;7;7;
46094;PMS5003;31832;50.746;-2.716;2023-09-12T03:41:10;9;7;
46094;PMS5003;31832;50.746;-2.716;2023-09-12T03:43:36;8;7;
46094;PMS5003;31832;50.746;-2.716;2023-09-12T03:46:00;7;6;
46094;PMS5003;31832;50.746;-2.716;2023-09-12T03:48:26;9;7;
46094;PMS5003;31832;50.746;-2.716;2023-09-12T03:50:51;5;5;
46094;PMS5003;31832;50.746;-2.716;2023-09-12T03:53:16;8;8;
46094;PMS5003;31832;50.746;-2.716;2023-09-12T03:55:41;9;9;
46094;PMS5003;31832;50.746;-2.716;2023-09-12T03:58:06;8;7;
46094;PMS5003;31832;50.746;-2.716;2023-09-12T04:00:31;9;7;
46094;PMS5003;31832;50.746;-2.716;2023-09-12T04:02:56;7;6;
46094;PMS5003;31832;50.746;-2.716;2023-09-12T04:05:22;10;8;
46094;PMS5003;31832;50.746;-2.716;2023-09-12T04:07:47;9;7;
46094;PMS5003;31832;50.746;-2.716;2023-09-12T04:10:12;8;5;
46094;PMS5003;31832;50.746;-2.716;2023-09-12T04:12:37;8;7;
46094;PMS5003;31832;50.746;-2.716;2023-09-12T04:15:02;7;7;
46094;PMS5003;31832;50.746;-2.716;2023-09-12T04:17:27;6;6;
46094;PMS5003;31832;50.746;-2.716;2023-09-12T04:19:52;8;7;
46094;PMS5003;31832;50.746;-2.716;2023-09-12T04:22:17;5;5;
46094;PMS5003;31832;50.746;-2.716;2023-09-12T04:24:43;6;5;
46094;PMS5003;31832;50.746;-2.716;2023-09-12T04:27:08;7;7;
46094;PMS5003;31832;50.746;-2.716;2023-09-12T04:29:33;8;7;
46094;PMS5003;31832;50.746;-2.716;2023-09-12T04:31:58;8;7;
46094;PMS5003;31832;50.746;-2.716;2023-09-12T04:34:23;7;6;
46094;PMS5003;31832;50.746;-2.716;2023-09-12T04:36:48;7;6;
46094;PMS5003;31832;50.746;-2.716;2023-09-12T04:39:14;10;8;
46094;PMS5003;31832;50.746;-2.716;2023-09-12T04:41:39;5;5;
46094;PMS5003;31832;50.746;-2.716;2023-09-12T04:44:04;9;9;
46094;PMS5003;31832;50.746;-2.716;2023-09-12T04:46:29;7;6;
46094;PMS5003;31832;50.746;-2.716;2023-09-12T04:48:55;9;9;
46094;PMS5003;31832;50.746;-2.716;2023-09-12T04:51:20;6;6;
46094;PMS5003;31832;50.746;-2.716;2023-09-12T04:53:45;10;9;
46094;PMS5003;31832;50.746;-2.716;2023-09-12T04:56:10;7;7;
46094;PMS5003;31832;50.746;-2.716;2023-09-12T04:58:35;9;9;
46094;PMS5003;31832;50.746;-2.716;2023-09-12T05:01:00;7;7;
46094;PMS5003;31832;50.746;-2.716;2023-09-12T05:03:25;4;4;
46094;PMS5003;31832;50.746;-2.716;2023-09-12T05:05:51;7;7;
46094;PMS5003;31832;50.746;-2.716;2023-09-12T05:08:16;5;5;
46094;PMS5003;31832;50.746;-2.716;2023-09-12T05:10:41;6;6;
46094;PMS5003;31832;50.746;-2.716;2023-09-12T05:13:06;7;7;
46094;PMS5003;31832;50.746;-2.716;2023-09-12T05:15:31;6;6;
46094;PMS5003;31832;50.746;-2.716;2023-09-12T05:17:56;7;7;
46094;PMS5003;31832;50.746;-2.716;2023-09-12T05:20:21;7;7;
46094;PMS5003;31832;50.746;-2.716;2023-09-12T05:22:46;7;7;
46094;PMS5003;31832;50.746;-2.716;2023-09-12T05:25:12;8;8;
46094;PMS5003;31832;50.746;-2.716;2023-09-12T05:27:37;8;7;
46094;PMS5003;31832;50.746;-2.716;2023-09-12T05:30:02;7;7;
46094;PMS5003;31832;50.746;-2.716;2023-09-12T05:32:27;8;7;
46094;PMS5003;31832;50.746;-2.716;2023-09-12T05:34:52;7;7;
46094;PMS5003;31832;50.746;-2.716;2023-09-12T05:37:17;5;4;
46094;PMS5003;31832;50.746;-2.716;2023-09-12T05:39:43;8;7;
46094;PMS5003;31832;50.746;-2.716;2023-09-12T05:42:08;8;8;
46094;PMS5003;31832;50.746;-2.716;2023-09-12T05:44:34;6;6;
46094;PMS5003;31832;50.746;-2.716;2023-09-12T05:46:59;10;10;
46094;PMS5003;31832;50.746;-2.716;2023-09-12T05:49:24;9;6;
46094;PMS5003;31832;50.746;-2.716;2023-09-12T05:51:49;13;10;
46094;PMS5003;31832;50.746;-2.716;2023-09-12T05:54:14;7;7;
46094;PMS5003;31832;50.746;-2.716;2023-09-12T05:56:40;10;10;
46094;PMS5003;31832;50.746;-2.716;2023-09-12T05:59:05;8;8;
46094;PMS5003;31832;50.746;-2.716;2023-09-12T06:01:30;7;7;
46094;PMS5003;31832;50.746;-2.716;2023-09-12T06:03:55;8;8;
46094;PMS5003;31832;50.746;-2.716;2023-09-12T06:06:21;7;7;
46094;PMS5003;31832;50.746;-2.716;2023-09-12T06:08:46;9;9;
46094;PMS5003;31832;50.746;-2.716;2023-09-12T06:11:11;11;8;
46094;PMS5003;31832;50.746;-2.716;2023-09-12T06:13:37;11;8;
46094;PMS5003;31832;50.746;-2.716;2023-09-12T06:16:02;7;7;
46094;PMS5003;31832;50.746;-2.716;2023-09-12T06:18:27;8;8;
46094;PMS5003;31832;50.746;-2.716;2023-09-12T06:20:52;10;8;
46094;PMS5003;31832;50.746;-2.716;2023-09-12T06:23:17;6;5;
46094;PMS5003;31832;50.746;-2.716;2023-09-12T06:25:43;6;6;
46094;PMS5003;31832;50.746;-2.716;2023-09-12T06:28:08;6;6;
46094;PMS5003;31832;50.746;-2.716;2023-09-12T06:30:33;10;8;
46094;PMS5003;31832;50.746;-2.716;2023-09-12T06:32:58;12;11;
46094;PMS5003;31832;50.746;-2.716;2023-09-12T06:35:23;5;5;
46094;PMS5003;31832;50.746;-2.716;2023-09-12T06:37:49;7;7;
46094;PMS5003;31832;50.746;-2.716;2023-09-12T06:40:14;6;6;
46094;PMS5003;31832;50.746;-2.716;2023-09-12T06:42:39;7;7;
46094;PMS5003;31832;50.746;-2.716;2023-09-12T06:45:04;8;8;
46094;PMS5003;31832;50.746;-2.716;2023-09-12T06:47:29;7;6;
46094;PMS5003;31832;50.746;-2.716;2023-09-12T06:49:54;9;8;
46094;PMS5003;31832;50.746;-2.716;2023-09-12T06:52:19;6;6;
46094;PMS5003;31832;50.746;-2.716;2023-09-12T06:54:45;8;8;
46094;PMS5003;31832;50.746;-2.716;2023-09-12T06:57:10;6;6;
46094;PMS5003;31832;50.746;-2.716;2023-09-12T06:59:35;7;7;
46094;PMS5003;31832;50.746;-2.716;2023-09-12T07:02:00;6;6;
46094;PMS5003;31832;50.746;-2.716;2023-09-12T07:04:26;8;7;
46094;PMS5003;31832;50.746;-2.716;2023-09-12T07:06:51;9;9;
46094;PMS5003;31832;50.746;-2.716;2023-09-12T07:09:16;8;8;
46094;PMS5003;31832;50.746;-2.716;2023-09-12T07:11:41;10;10;
46094;PMS5003;31832;50.746;-2.716;2023-09-12T07:14:06;8;8;
46094;PMS5003;31832;50.746;-2.716;2023-09-12T07:16:31;11;8;
46094;PMS5003;31832;50.746;-2.716;2023-09-12T07:18:56;9;9;
46094;PMS5003;31832;50.746;-2.716;2023-09-12T07:21:22;7;7;
46094;PMS5003;31832;50.746;-2.716;2023-09-12T07:23:48;11;10;
46094;PMS5003;31832;50.746;-2.716;2023-09-12T07:26:13;12;12;
46094;PMS5003;31832;50.746;-2.716;2023-09-12T07:28:38;14;11;
46094;PMS5003;31832;50.746;-2.716;2023-09-12T07:31:03;12;11;
46094;PMS5003;31832;50.746;-2.716;2023-09-12T07:33:29;13;12;
46094;PMS5003;31832;50.746;-2.716;2023-09-12T07:35:54;18;17;
46094;PMS5003;31832;50.746;-2.716;2023-09-12T07:38:20;15;14;
46094;PMS5003;31832;50.746;-2.716;2023-09-12T07:40:44;13;13;
46094;PMS5003;31832;50.746;-2.716;2023-09-12T07:43:09;13;13;
46094;PMS5003;31832;50.746;-2.716;2023-09-12T07:45:35;15;15;
46094;PMS5003;31832;50.746;-2.716;2023-09-12T07:48:00;14;14;
46094;PMS5003;31832;50.746;-2.716;2023-09-12T07:50:26;12;12;
46094;PMS5003;31832;50.746;-2.716;2023-09-12T07:52:51;14;11;
46094;PMS5003;31832;50.746;-2.716;2023-09-12T07:55:16;17;14;
46094;PMS5003;31832;50.746;-2.716;2023-09-12T07:57:41;14;14;
46094;PMS5003;31832;50.746;-2.716;2023-09-12T08:00:07;16;12;
46094;PMS5003;31832;50.746;-2.716;2023-09-12T08:02:31;12;11;
46094;PMS5003;31832;50.746;-2.716;2023-09-12T08:04:57;12;9;
46094;PMS5003;31832;50.746;-2.716;2023-09-12T08:07:22;10;10;
46094;PMS5003;31832;50.746;-2.716;2023-09-12T08:09:48;13;10;
46094;PMS5003;31832;50.746;-2.716;2023-09-12T08:12:14;9;9;
46094;PMS5003;31832;50.746;-2.716;2023-09-12T08:14:39;13;11;
46094;PMS5003;31832;50.746;-2.716;2023-09-12T08:17:04;13;11;
46094;PMS5003;31832;50.746;-2.716;2023-09-12T08:19:29;8;8;
46094;PMS5003;31832;50.746;-2.716;2023-09-12T08:21:55;8;7;
46094;PMS5003;31832;50.746;-2.716;2023-09-12T08:24:20;7;7;
46094;PMS5003;31832;50.746;-2.716;2023-09-12T08:26:45;10;10;
46094;PMS5003;31832;50.746;-2.716;2023-09-12T08:29:10;8;7;
46094;PMS5003;31832;50.746;-2.716;2023-09-12T08:31:38;7;7;
46094;PMS5003;31832;50.746;-2.716;2023-09-12T08:34:00;8;8;
46094;PMS5003;31832;50.746;-2.716;2023-09-12T08:36:25;10;8;
46094;PMS5003;31832;50.746;-2.716;2023-09-12T08:38:50;11;11;
46094;PMS5003;31832;50.746;-2.716;2023-09-12T08:41:16;9;9;
46094;PMS5003;31832;50.746;-2.716;2023-09-12T08:43:41;8;8;
46094;PMS5003;31832;50.746;-2.716;2023-09-12T08:46:06;7;7;
46094;PMS5003;31832;50.746;-2.716;2023-09-12T08:48:31;9;9;
46094;PMS5003;31832;50.746;-2.716;2023-09-12T08:50:57;9;7;
46094;PMS5003;31832;50.746;-2.716;2023-09-12T08:53:22;5;5;
46094;PMS5003;31832;50.746;-2.716;2023-09-12T08:55:47;16;13;
46094;PMS5003;31832;50.746;-2.716;2023-09-12T08:58:12;7;7;
46094;PMS5003;31832;50.746;-2.716;2023-09-12T09:00:37;11;10;
46094;PMS5003;31832;50.746;-2.716;2023-09-12T09:03:03;8;8;
46094;PMS5003;31832;50.746;-2.716;2023-09-12T09:05:27;8;8;
46094;PMS5003;31832;50.746;-2.716;2023-09-12T09:07:52;9;7;
46094;PMS5003;31832;50.746;-2.716;2023-09-12T09:10:19;11;11;
46094;PMS5003;31832;50.746;-2.716;2023-09-12T09:12:44;10;9;
46094;PMS5003;31832;50.746;-2.716;2023-09-12T09:17:34;11;8;
46094;PMS5003;31832;50.746;-2.716;2023-09-12T09:20:00;9;9;
46094;PMS5003;31832;50.746;-2.716;2023-09-12T09:22:25;12;10;
46094;PMS5003;31832;50.746;-2.716;2023-09-12T09:24:53;8;8;
46094;PMS5003;31832;50.746;-2.716;2023-09-12T09:29:46;7;6;
46094;PMS5003;31832;50.746;-2.716;2023-09-12T09:32:06;12;11;
46094;PMS5003;31832;50.746;-2.716;2023-09-12T09:34:31;8;6;
46094;PMS5003;31832;50.746;-2.716;2023-09-12T09:36:57;9;7;
46094;PMS5003;31832;50.746;-2.716;2023-09-12T09:39:22;7;7;
46094;PMS5003;31832;50.746;-2.716;2023-09-12T09:41:47;7;7;
46094;PMS5003;31832;50.746;-2.716;2023-09-12T09:44:12;7;7;
46094;PMS5003;31832;50.746;-2.716;2023-09-12T09:46:37;6;6;
46094;PMS5003;31832;50.746;-2.716;2023-09-12T09:49:02;6;5;
46094;PMS5003;31832;50.746;-2.716;2023-09-12T09:51:27;6;6;
46094;PMS5003;31832;50.746;-2.716;2023-09-12T09:53:52;7;6;
46094;PMS5003;31832;50.746;-2.716;2023-09-12T09:56:17;8;6;
46094;PMS5003;31832;50.746;-2.716;2023-09-12T09:58:46;6;6;
46094;PMS5003;31832;50.746;-2.716;2023-09-12T10:01:08;7;6;
46094;PMS5003;31832;50.746;-2.716;2023-09-12T10:03:33;9;9;
46094;PMS5003;31832;50.746;-2.716;2023-09-12T10:05:58;10;8;
46094;PMS5003;31832;50.746;-2.716;2023-09-12T10:08:23;7;6;
46094;PMS5003;31832;50.746;-2.716;2023-09-12T10:10:49;7;6;
46094;PMS5003;31832;50.746;-2.716;2023-09-12T10:13:14;8;7;
46094;PMS5003;31832;50.746;-2.716;2023-09-12T10:15:39;5;5;
46094;PMS5003;31832;50.746;-2.716;2023-09-12T10:18:06;5;5;
46094;PMS5003;31832;50.746;-2.716;2023-09-12T10:20:33;6;6;
46094;PMS5003;31832;50.746;-2.716;2023-09-12T10:22:58;5;5;
46094;PMS5003;31832;50.746;-2.716;2023-09-12T10:25:20;7;7;
46094;PMS5003;31832;50.746;-2.716;2023-09-12T10:27:45;8;7;
46094;PMS5003;31832;50.746;-2.716;2023-09-12T10:30:10;6;6;
46094;PMS5003;31832;50.746;-2.716;2023-09-12T10:32:36;7;7;
46094;PMS5003;31832;50.746;-2.716;2023-09-12T10:35:02;6;6;
46094;PMS5003;31832;50.746;-2.716;2023-09-12T10:37:26;5;5;
46094;PMS5003;31832;50.746;-2.716;2023-09-12T10:39:51;10;7;
46094;PMS5003;31832;50.746;-2.716;2023-09-12T10:42:17;8;7;
46094;PMS5003;31832;50.746;-2.716;2023-09-12T10:44:42;9;9;
46094;PMS5003;31832;50.746;-2.716;2023-09-12T10:47:07;9;6;
46094;PMS5003;31832;50.746;-2.716;2023-09-12T10:49:33;4;4;
46094;PMS5003;31832;50.746;-2.716;2023-09-12T10:51:57;7;6;
46094;PMS5003;31832;50.746;-2.716;2023-09-12T10:54:23;6;6;
46094;PMS5003;31832;50.746;-2.716;2023-09-12T10:56:48;8;7;
46094;PMS5003;31832;50.746;-2.716;2023-09-12T10:59:13;6;6;
46094;PMS5003;31832;50.746;-2.716;2023-09-12T11:01:38;8;8;
46094;PMS5003;31832;50.746;-2.716;2023-09-12T11:04:05;6;6;
46094;PMS5003;31832;50.746;-2.716;2023-09-12T11:06:33;8;7;
46094;PMS5003;31832;50.746;-2.716;2023-09-12T11:11:18;6;6;
46094;PMS5003;31832;50.746;-2.716;2023-09-12T11:13:43;7;7;
46094;PMS5003;31832;50.746;-2.716;2023-09-12T11:16:10;4;4;
46094;PMS5003;31832;50.746;-2.716;2023-09-12T11:18:34;6;6;
46094;PMS5003;31832;50.746;-2.716;2023-09-12T11:20:59;5;5;
46094;PMS5003;31832;50.746;-2.716;2023-09-12T11:23:24;6;5;
46094;PMS5003;31832;50.746;-2.716;2023-09-12T11:28:14;5;5;
46094;PMS5003;31832;50.746;-2.716;2023-09-12T11:30:54;6;6;
46094;PMS5003;31832;50.746;-2.716;2023-09-12T11:33:08;4;3;
46094;PMS5003;31832;50.746;-2.716;2023-09-12T11:35:30;5;5;
46094;PMS5003;31832;50.746;-2.716;2023-09-12T11:37:56;5;4;
46094;PMS5003;31832;50.746;-2.716;2023-09-12T11:40:23;4;4;
46094;PMS5003;31832;50.746;-2.716;2023-09-12T11:42:45;6;5;
46094;PMS5003;31832;50.746;-2.716;2023-09-12T11:45:10;7;7;
46094;PMS5003;31832;50.746;-2.716;2023-09-12T11:47:39;4;4;
46094;PMS5003;31832;50.746;-2.716;2023-09-12T11:50:01;3;3;
46094;PMS5003;31832;50.746;-2.716;2023-09-12T11:52:26;3;3;
46094;PMS5003;31832;50.746;-2.716;2023-09-12T11:54:51;3;3;
46094;PMS5003;31832;50.746;-2.716;2023-09-12T11:57:16;6;5;
46094;PMS5003;31832;50.746;-2.716;2023-09-12T11:59:42;5;5;
46094;PMS5003;31832;50.746;-2.716;2023-09-12T12:02:07;6;6;
46094;PMS5003;31832;50.746;-2.716;2023-09-12T12:04:31;7;6;
46094;PMS5003;31832;50.746;-2.716;2023-09-12T12:06:56;7;6;
46094;PMS5003;31832;50.746;-2.716;2023-09-12T12:09:22;7;6;
46094;PMS5003;31832;50.746;-2.716;2023-09-12T12:11:47;9;7;
46094;PMS5003;31832;50.746;-2.716;2023-09-12T12:14:13;7;7;
46094;PMS5003;31832;50.746;-2.716;2023-09-12T12:16:37;7;7;
46094;PMS5003;31832;50.746;-2.716;2023-09-12T12:19:03;6;6;
46094;PMS5003;31832;50.746;-2.716;2023-09-12T12:21:28;6;4;
46094;PMS5003;31832;50.746;-2.716;2023-09-12T12:23:58;10;7;
46094;PMS5003;31832;50.746;-2.716;2023-09-12T12:26:18;6;6;
46094;PMS5003;31832;50.746;-2.716;2023-09-12T12:28:44;7;7;
46094;PMS5003;31832;50.746;-2.716;2023-09-12T12:31:09;7;7;
46094;PMS5003;31832;50.746;-2.716;2023-09-12T12:33:34;8;6;
46094;PMS5003;31832;50.746;-2.716;2023-09-12T12:35:59;7;6;
46094;PMS5003;31832;50.746;-2.716;2023-09-12T12:38:24;5;5;
46094;PMS5003;31832;50.746;-2.716;2023-09-12T12:40:49;3;2;
46094;PMS5003;31832;50.746;-2.716;2023-09-12T12:43:16;1;1;
46094;PMS5003;31832;50.746;-2.716;2023-09-12T12:45:39;3;3;
46094;PMS5003;31832;50.746;-2.716;2023-09-12T12:48:05;5;5;
46094;PMS5003;31832;50.746;-2.716;2023-09-12T12:50:34;4;3;
46094;PMS5003;31832;50.746;-2.716;2023-09-12T12:52:55;7;7;
46094;PMS5003;31832;50.746;-2.716;2023-09-12T12:55:20;1;1;
46094;PMS5003;31832;50.746;-2.716;2023-09-12T12:57:47;1;1;
46094;PMS5003;31832;50.746;-2.716;2023-09-12T13:00:11;0;0;
46094;PMS5003;31832;50.746;-2.716;2023-09-12T13:02:35;2;1;
46094;PMS5003;31832;50.746;-2.716;2023-09-12T13:05:00;2;1;
46094;PMS5003;31832;50.746;-2.716;2023-09-12T13:07:25;1;1;
46094;PMS5003;31832;50.746;-2.716;2023-09-12T13:09:50;2;2;
46094;PMS5003;31832;50.746;-2.716;2023-09-12T13:12:16;1;0;
46094;PMS5003;31832;50.746;-2.716;2023-09-12T13:14:41;1;1;
46094;PMS5003;31832;50.746;-2.716;2023-09-12T13:17:06;2;1;
46094;PMS5003;31832;50.746;-2.716;2023-09-12T13:19:31;2;2;
46094;PMS5003;31832;50.746;-2.716;2023-09-12T13:21:56;1;1;
46094;PMS5003;31832;50.746;-2.716;2023-09-12T13:24:21;3;2;
46094;PMS5003;31832;50.746;-2.716;2023-09-12T13:26:46;0;0;
46094;PMS5003;31832;50.746;-2.716;2023-09-12T13:29:11;2;2;
46094;PMS5003;31832;50.746;-2.716;2023-09-12T13:31:36;0;0;
46094;PMS5003;31832;50.746;-2.716;2023-09-12T13:34:01;2;2;
46094;PMS5003;31832;50.746;-2.716;2023-09-12T13:36:27;1;1;
46094;PMS5003;31832;50.746;-2.716;2023-09-12T13:38:52;1;1;
46094;PMS5003;31832;50.746;-2.716;2023-09-12T13:41:22;1;1;
46094;PMS5003;31832;50.746;-2.716;2023-09-12T13:43:42;1;1;
46094;PMS5003;31832;50.746;-2.716;2023-09-12T13:46:07;2;1;
46094;PMS5003;31832;50.746;-2.716;2023-09-12T13:48:32;0;0;
46094;PMS5003;31832;50.746;-2.716;2023-09-12T13:50:57;1;1;
46094;PMS5003;31832;50.746;-2.716;2023-09-12T13:53:22;2;1;
46094;PMS5003;31832;50.746;-2.716;2023-09-12T13:55:47;1;1;
46094;PMS5003;31832;50.746;-2.716;2023-09-12T13:58:13;2;2;
46094;PMS5003;31832;50.746;-2.716;2023-09-12T14:00:38;1;1;
46094;PMS5003;31832;50.746;-2.716;2023-09-12T14:03:03;1;1;
46094;PMS5003;31832;50.746;-2.716;2023-09-12T14:05:28;2;2;
46094;PMS5003;31832;50.746;-2.716;2023-09-12T14:07:53;0;0;
46094;PMS5003;31832;50.746;-2.716;2023-09-12T14:10:18;3;2;
46094;PMS5003;31832;50.746;-2.716;2023-09-12T14:12:43;0;0;
46094;PMS5003;31832;50.746;-2.716;2023-09-12T14:15:09;1;1;
46094;PMS5003;31832;50.746;-2.716;2023-09-12T14:17:33;2;2;
46094;PMS5003;31832;50.746;-2.716;2023-09-12T14:19:58;0;0;
46094;PMS5003;31832;50.746;-2.716;2023-09-12T14:22:24;4;3;
46094;PMS5003;31832;50.746;-2.716;2023-09-12T14:24:49;1;1;
46094;PMS5003;31832;50.746;-2.716;2023-09-12T14:27:14;1;1;
46094;PMS5003;31832;50.746;-2.716;2023-09-12T14:29:39;2;2;
46094;PMS5003;31832;50.746;-2.716;2023-09-12T14:32:04;1;1;
46094;PMS5003;31832;50.746;-2.716;2023-09-12T14:34:29;2;2;
46094;PMS5003;31832;50.746;-2.716;2023-09-12T14:36:54;3;1;
46094;PMS5003;31832;50.746;-2.716;2023-09-12T14:39:19;2;2;
46094;PMS5003;31832;50.746;-2.716;2023-09-12T14:41:44;3;2;
46094;PMS5003;31832;50.746;-2.716;2023-09-12T14:44:09;1;1;
46094;PMS5003;31832;50.746;-2.716;2023-09-12T14:46:35;3;2;
46094;PMS5003;31832;50.746;-2.716;2023-09-12T14:49:00;3;2;
46094;PMS5003;31832;50.746;-2.716;2023-09-12T14:51:25;2;1;
46094;PMS5003;31832;50.746;-2.716;2023-09-12T14:53:50;2;2;
46094;PMS5003;31832;50.746;-2.716;2023-09-12T14:56:15;2;2;
46094;PMS5003;31832;50.746;-2.716;2023-09-12T14:58:40;2;2;
46094;PMS5003;31832;50.746;-2.716;2023-09-12T15:01:05;2;2;
46094;PMS5003;31832;50.746;-2.716;2023-09-12T15:03:30;1;1;
46094;PMS5003;31832;50.746;-2.716;2023-09-12T15:05:55;1;1;
46094;PMS5003;31832;50.746;-2.716;2023-09-12T15:08:21;4;4;
46094;PMS5003;31832;50.746;-2.716;2023-09-12T15:10:46;4;1;
46094;PMS5003;31832;50.746;-2.716;2023-09-12T15:13:11;3;3;
46094;PMS5003;31832;50.746;-2.716;2023-09-12T15:15:36;2;2;
46094;PMS5003;31832;50.746;-2.716;2023-09-12T15:18:01;1;1;
46094;PMS5003;31832;50.746;-2.716;2023-09-12T15:20:26;2;2;
46094;PMS5003;31832;50.746;-2.716;2023-09-12T15:22:51;2;2;
46094;PMS5003;31832;50.746;-2.716;2023-09-12T15:25:16;4;4;
46094;PMS5003;31832;50.746;-2.716;2023-09-12T15:27:41;3;3;
46094;PMS5003;31832;50.746;-2.716;2023-09-12T15:30:07;2;2;
46094;PMS5003;31832;50.746;-2.716;2023-09-12T15:32:32;5;3;
46094;PMS5003;31832;50.746;-2.716;2023-09-12T15:34:57;2;2;
46094;PMS5003;31832;50.746;-2.716;2023-09-12T15:37:22;3;3;
46094;PMS5003;31832;50.746;-2.716;2023-09-12T15:39:47;3;3;
46094;PMS5003;31832;50.746;-2.716;2023-09-12T15:42:12;3;3;
46094;PMS5003;31832;50.746;-2.716;2023-09-12T15:44:37;2;2;
46094;PMS5003;31832;50.746;-2.716;2023-09-12T15:47:02;2;2;
46094;PMS5003;31832;50.746;-2.716;2023-09-12T15:49:28;3;3;
46094;PMS5003;31832;50.746;-2.716;2023-09-12T15:51:53;5;3;
46094;PMS5003;31832;50.746;-2.716;2023-09-12T15:54:18;3;2;
46094;PMS5003;31832;50.746;-2.716;2023-09-12T15:56:43;3;3;
46094;PMS5003;31832;50.746;-2.716;2023-09-12T15:59:08;4;2;
46094;PMS5003;31832;50.746;-2.716;2023-09-12T16:01:33;4;3;
46094;PMS5003;31832;50.746;-2.716;2023-09-12T16:03:58;2;1;
46094;PMS5003;31832;50.746;-2.716;2023-09-12T16:06:23;3;3;
46094;PMS5003;31832;50.746;-2.716;2023-09-12T16:08:48;5;3;
46094;PMS5003;31832;50.746;-2.716;2023-09-12T16:11:14;2;2;
46094;PMS5003;31832;50.746;-2.716;2023-09-12T16:13:39;2;2;
46094;PMS5003;31832;50.746;-2.716;2023-09-12T16:16:04;3;2;
46094;PMS5003;31832;50.746;-2.716;2023-09-12T16:18:29;4;4;
46094;PMS5003;31832;50.746;-2.716;2023-09-12T16:20:54;3;0;
46094;PMS5003;31832;50.746;-2.716;2023-09-12T16:23:19;3;3;
46094;PMS5003;31832;50.746;-2.716;2023-09-12T16:25:44;4;2;